createdAt,value
2023-05-25T00:01:03.120Z,9.27
2023-05-25T00:03:31.763Z,8.18
2023-05-25T00:06:01.416Z,9.52
2023-05-25T00:08:29.612Z,8.73
2023-05-25T00:10:56.472Z,8.93
2023-05-25T00:13:23.228Z,8.82
2023-05-25T00:15:51.165Z,8.60
2023-05-25T00:18:18.534Z,9.55
2023-05-25T00:20:45.972Z,10.02
2023-05-25T00:23:12.539Z,8.52
2023-05-25T00:25:39.290Z,9.38
2023-05-25T00:28:06.388Z,9.07
2023-05-25T00:30:33.052Z,9.45
2023-05-25T00:33:01.536Z,8.60
2023-05-25T00:35:29.333Z,8.60
2023-05-25T00:37:56.150Z,8.95
2023-05-25T00:40:22.924Z,9.15
2023-05-25T00:42:50.677Z,9.48
2023-05-25T00:45:17.319Z,9.73
2023-05-25T00:47:44.801Z,9.25
2023-05-25T00:50:15.341Z,9.18
2023-05-25T00:52:42.227Z,9.40
2023-05-25T00:55:12.417Z,8.63
2023-05-25T00:57:41.540Z,8.88
2023-05-25T01:00:11.516Z,9.07
2023-05-25T01:02:41.308Z,8.93
2023-05-25T01:05:10.760Z,8.63
2023-05-25T01:07:38.460Z,8.70
2023-05-25T01:10:11.295Z,8.25
2023-05-25T01:12:40.513Z,9.18
2023-05-25T01:15:09.126Z,8.80
2023-05-25T01:17:38.564Z,9.23
2023-05-25T01:20:11.724Z,8.75
2023-05-25T01:23:22.022Z,8.95
2023-05-25T01:25:53.948Z,8.23
2023-05-25T01:28:28.242Z,8.48
2023-05-25T01:30:57.125Z,8.20
2023-05-25T01:33:25.033Z,8.38
2023-05-25T01:35:52.493Z,8.57
2023-05-25T01:38:19.277Z,8.65
2023-05-25T01:40:45.898Z,8.95
2023-05-25T01:43:13.056Z,8.30
2023-05-25T01:45:40.123Z,8.82
2023-05-25T01:48:35.904Z,9.32
2023-05-25T01:51:07.584Z,8.73
2023-05-25T01:53:54.140Z,8.70
2023-05-25T01:56:23.197Z,9.25
2023-05-25T01:58:51.245Z,8.52
2023-05-25T02:01:20.270Z,9.00
2023-05-25T02:03:51.293Z,9.40
2023-05-25T02:06:17.988Z,8.77
2023-05-25T02:08:45.777Z,7.88
2023-05-25T02:11:14.623Z,8.20
2023-05-25T02:13:41.487Z,8.75
2023-05-25T02:16:08.349Z,8.20
2023-05-25T02:18:34.960Z,8.18
2023-05-25T02:21:01.652Z,8.75
2023-05-25T02:23:28.447Z,8.25
2023-05-25T02:25:56.040Z,9.00
2023-05-25T02:28:22.632Z,9.13
2023-05-25T02:30:49.175Z,8.90
2023-05-25T02:33:15.958Z,9.23
2023-05-25T02:35:43.152Z,9.23
2023-05-25T02:38:09.958Z,9.80
2023-05-25T02:40:36.497Z,9.23
2023-05-25T02:43:03.012Z,9.63
2023-05-25T02:45:29.534Z,9.77
2023-05-25T02:47:56.086Z,9.88
2023-05-25T02:50:22.699Z,9.63
2023-05-25T02:52:49.245Z,9.23
2023-05-25T02:55:21.667Z,9.13
2023-05-25T02:57:48.513Z,9.68
2023-05-25T03:00:15.651Z,9.70
2023-05-25T03:02:42.193Z,9.05
2023-05-25T03:05:08.986Z,9.15
2023-05-25T03:07:35.674Z,9.80
2023-05-25T03:10:02.238Z,9.70
2023-05-25T03:12:28.805Z,9.18
2023-05-25T03:14:56.521Z,8.75
2023-05-25T03:17:23.112Z,8.93
2023-05-25T03:19:49.641Z,8.93
2023-05-25T03:22:16.219Z,9.38
2023-05-25T03:24:42.768Z,9.18
2023-05-25T03:27:09.532Z,9.25
2023-05-25T03:29:36.149Z,8.98
2023-05-25T03:32:02.848Z,9.40
2023-05-25T03:34:30.138Z,8.63
2023-05-25T03:36:56.673Z,9.63
2023-05-25T03:39:23.413Z,9.32
2023-05-25T03:41:51.076Z,9.45
2023-05-25T03:44:17.626Z,8.68
2023-05-25T03:46:44.267Z,8.63
2023-05-25T03:49:14.062Z,9.90
2023-05-25T03:51:43.403Z,9.38
2023-05-25T03:54:10.040Z,9.05
2023-05-25T03:56:36.695Z,9.85
2023-05-25T03:59:03.258Z,8.55
2023-05-25T04:01:30.838Z,8.68
2023-05-25T04:03:57.688Z,8.88
2023-05-25T04:06:25.577Z,9.25
2023-05-25T04:08:52.985Z,8.52
2023-05-25T04:11:20.998Z,7.75
2023-05-25T04:13:47.624Z,8.00
2023-05-25T04:16:14.840Z,8.23
2023-05-25T04:18:41.596Z,7.80
2023-05-25T04:21:08.200Z,7.68
2023-05-25T04:23:34.938Z,8.50
2023-05-25T04:26:01.722Z,8.20
2023-05-25T04:28:28.417Z,8.30
2023-05-25T04:30:58.269Z,8.23
2023-05-25T04:33:29.865Z,8.30
2023-05-25T04:35:58.665Z,7.93
2023-05-25T04:38:26.524Z,7.80
2023-05-25T04:40:57.689Z,7.60
2023-05-25T04:43:26.107Z,7.28
2023-05-25T04:45:54.395Z,8.13
2023-05-25T04:48:21.569Z,7.50
2023-05-25T04:50:48.984Z,7.45
2023-05-25T04:53:15.873Z,7.60
2023-05-25T04:55:42.834Z,7.57
2023-05-25T04:58:11.870Z,7.32
2023-05-25T05:00:40.472Z,6.93
2023-05-25T05:03:09.767Z,7.50
2023-05-25T05:05:37.026Z,7.07
2023-05-25T05:08:03.719Z,6.18
2023-05-25T05:10:31.492Z,6.65
2023-05-25T05:13:07.861Z,6.72
2023-05-25T05:15:40.023Z,6.30
2023-05-25T05:18:08.560Z,6.05
2023-05-25T05:20:35.397Z,6.15
2023-05-25T05:23:02.012Z,5.57
2023-05-25T05:25:31.257Z,5.97
2023-05-25T05:27:57.742Z,5.55
2023-05-25T05:30:26.546Z,5.00
2023-05-25T05:32:53.304Z,5.18
2023-05-25T05:35:19.885Z,5.20
2023-05-25T05:37:47.791Z,5.05
2023-05-25T05:40:14.716Z,4.57
2023-05-25T05:42:42.370Z,4.63
2023-05-25T05:45:09.346Z,5.00
2023-05-25T05:47:35.980Z,5.00
2023-05-25T05:50:03.143Z,4.60
2023-05-25T05:52:29.726Z,4.78
2023-05-25T05:54:56.454Z,5.22
2023-05-25T05:57:23.315Z,4.57
2023-05-25T05:59:49.882Z,4.07
2023-05-25T06:02:17.164Z,4.47
2023-05-25T06:04:43.876Z,4.72
2023-05-25T06:07:10.416Z,4.93
2023-05-25T06:09:37.099Z,3.97
2023-05-25T06:12:03.873Z,4.68
2023-05-25T06:14:30.410Z,4.63
2023-05-25T06:16:57.118Z,4.57
2023-05-25T06:19:23.682Z,4.43
2023-05-25T06:21:50.169Z,4.63
2023-05-25T06:24:16.785Z,4.38
2023-05-25T06:26:43.353Z,4.25
2023-05-25T06:29:09.957Z,5.05
2023-05-25T06:31:36.539Z,4.57
2023-05-25T06:34:03.170Z,4.63
2023-05-25T06:36:29.737Z,4.75
2023-05-25T06:38:56.370Z,4.43
2023-05-25T06:41:22.993Z,4.63
2023-05-25T06:43:49.568Z,4.35
2023-05-25T06:46:18.377Z,4.38
2023-05-25T06:48:48.619Z,4.50
2023-05-25T06:51:15.160Z,4.43
2023-05-25T06:53:41.691Z,4.60
2023-05-25T06:56:08.190Z,4.07
2023-05-25T06:58:34.840Z,4.25
2023-05-25T07:01:02.294Z,3.97
2023-05-25T07:03:28.894Z,4.30
2023-05-25T07:05:55.684Z,3.83
2023-05-25T07:08:22.254Z,3.45
2023-05-25T07:10:50.449Z,3.55
2023-05-25T07:13:17.375Z,3.85
2023-05-25T07:15:44.449Z,4.07
2023-05-25T07:18:15.636Z,3.53
2023-05-25T07:20:43.900Z,3.40
2023-05-25T07:23:11.680Z,3.88
2023-05-25T07:25:40.053Z,3.95
2023-05-25T07:28:07.107Z,3.72
2023-05-25T07:30:33.859Z,3.67
2023-05-25T07:33:01.160Z,3.60
2023-05-25T07:35:27.856Z,3.50
2023-05-25T07:38:02.553Z,3.28
2023-05-25T07:40:29.094Z,3.35
2023-05-25T07:42:55.687Z,3.35
2023-05-25T07:45:22.772Z,3.47
2023-05-25T07:47:49.427Z,3.40
2023-05-25T07:50:16.418Z,3.25
2023-05-25T07:52:43.389Z,3.33
2023-05-25T07:55:10.260Z,3.25
2023-05-25T07:57:42.952Z,3.30
2023-05-25T08:00:11.043Z,3.25
2023-05-25T08:02:37.844Z,3.00
2023-05-25T08:05:06.237Z,3.20
2023-05-25T08:07:34.030Z,3.17
2023-05-25T08:10:01.251Z,2.63
2023-05-25T08:12:45.969Z,2.70
2023-05-25T08:15:14.819Z,2.85
2023-05-25T08:17:41.829Z,2.97
2023-05-25T08:20:10.269Z,2.90
2023-05-25T08:22:36.875Z,2.67
2023-05-25T08:25:04.795Z,2.92
2023-05-25T08:27:33.529Z,3.10
2023-05-25T08:30:02.249Z,2.72
2023-05-25T08:32:28.927Z,2.75
2023-05-25T08:34:55.697Z,2.90
2023-05-25T08:37:23.632Z,2.80
2023-05-25T08:39:50.601Z,2.90
2023-05-25T08:42:17.304Z,3.28
2023-05-25T08:44:44.139Z,2.88
2023-05-25T08:47:12.376Z,2.90
2023-05-25T08:49:39.770Z,3.08
2023-05-25T08:52:10.899Z,3.00
2023-05-25T08:54:38.309Z,2.95
2023-05-25T08:57:30.198Z,3.00
2023-05-25T09:00:04.367Z,2.67
2023-05-25T09:02:50.965Z,3.33
2023-05-25T09:05:17.818Z,2.88
2023-05-25T09:07:45.208Z,2.90
2023-05-25T09:10:12.783Z,3.00
2023-05-25T09:12:39.695Z,2.88
2023-05-25T09:15:06.918Z,3.00
2023-05-25T09:17:35.274Z,2.80
2023-05-25T09:20:03.668Z,3.13
2023-05-25T09:22:30.241Z,2.95
2023-05-25T09:24:56.854Z,2.50
2023-05-25T09:27:29.366Z,2.85
2023-05-25T09:30:00.070Z,2.80
2023-05-25T09:32:27.318Z,2.50
2023-05-25T09:34:56.535Z,2.72
2023-05-25T09:37:23.795Z,2.70
2023-05-25T09:39:51.554Z,2.72
2023-05-25T09:42:18.248Z,2.90
2023-05-25T09:44:45.024Z,2.58
2023-05-25T09:47:13.829Z,2.50
2023-05-25T09:49:40.791Z,2.70
2023-05-25T09:52:07.467Z,2.80
2023-05-25T09:54:33.976Z,3.03
2023-05-25T09:57:03.756Z,3.20
2023-05-25T09:59:31.483Z,2.40
2023-05-25T10:01:59.510Z,2.45
2023-05-25T10:04:26.354Z,3.03
2023-05-25T10:06:53.914Z,2.67
2023-05-25T10:09:20.814Z,2.55
2023-05-25T10:11:51.270Z,2.70
2023-05-25T10:14:22.691Z,2.90
2023-05-25T10:16:54.178Z,2.95
2023-05-25T10:19:28.560Z,3.00
2023-05-25T10:22:03.554Z,2.70
2023-05-25T10:24:38.507Z,2.80
2023-05-25T10:27:22.436Z,2.78
2023-05-25T10:29:55.169Z,2.58
2023-05-25T10:32:22.894Z,2.75
2023-05-25T10:34:52.328Z,2.47
2023-05-25T10:37:18.997Z,2.97
2023-05-25T10:39:46.528Z,2.85
2023-05-25T10:42:13.411Z,2.67
2023-05-25T10:44:43.975Z,2.97
2023-05-25T10:47:11.996Z,2.63
2023-05-25T10:49:58.828Z,3.00
2023-05-25T10:52:29.939Z,2.70
2023-05-25T10:55:10.077Z,2.90
2023-05-25T10:57:36.826Z,3.00
2023-05-25T11:00:08.537Z,2.90
2023-05-25T11:03:01.747Z,2.70
2023-05-25T11:05:31.439Z,2.80
2023-05-25T11:07:57.881Z,2.65
2023-05-25T11:10:50.437Z,2.90
2023-05-25T11:13:34.041Z,2.50
2023-05-25T11:16:30.627Z,2.75
2023-05-25T11:19:01.412Z,3.08
2023-05-25T11:21:28.072Z,2.58
2023-05-25T11:24:06.874Z,2.53
2023-05-25T11:26:54.676Z,2.40
2023-05-25T11:29:22.278Z,2.67
2023-05-25T11:31:56.239Z,2.30
2023-05-25T11:34:27.993Z,2.47
2023-05-25T11:37:01.989Z,2.63
2023-05-25T11:39:33.144Z,2.67
2023-05-25T11:42:21.378Z,3.00
2023-05-25T11:44:55.914Z,2.75
2023-05-25T11:47:49.234Z,2.47
2023-05-25T11:50:48.639Z,2.30
2023-05-25T11:53:19.068Z,2.58
2023-05-25T11:55:53.665Z,2.33
2023-05-25T12:01:33.188Z,2.20
2023-05-25T12:04:17.841Z,2.20
2023-05-25T12:06:50.572Z,2.50
2023-05-25T12:09:25.070Z,2.50
2023-05-25T12:12:00.975Z,2.40
2023-05-25T12:14:42.922Z,2.83
2023-05-25T12:17:38.842Z,2.50
2023-05-25T12:20:09.683Z,2.28
2023-05-25T12:22:37.287Z,2.67
2023-05-25T12:25:06.467Z,2.88
2023-05-25T12:27:33.024Z,2.45
2023-05-25T12:29:59.626Z,2.53
2023-05-25T12:32:26.479Z,3.08
2023-05-25T12:35:02.377Z,2.58
2023-05-25T12:37:31.443Z,2.80
2023-05-25T12:40:00.117Z,2.90
2023-05-25T12:42:27.516Z,2.70
2023-05-25T12:44:58.076Z,2.70
2023-05-25T12:47:25.613Z,2.72
2023-05-25T12:49:54.697Z,2.90
2023-05-25T12:52:38.341Z,2.75
2023-05-25T12:55:28.372Z,2.90
2023-05-25T12:57:55.039Z,2.72
2023-05-25T13:00:23.548Z,2.88
2023-05-25T13:02:51.659Z,2.90
2023-05-25T13:05:29.194Z,2.83
2023-05-25T13:07:58.190Z,2.70
2023-05-25T13:10:25.368Z,2.80
2023-05-25T13:12:54.110Z,3.15
2023-05-25T13:15:22.168Z,2.90
2023-05-25T13:17:50.523Z,2.92
2023-05-25T13:20:19.355Z,2.63
2023-05-25T13:22:47.512Z,2.75
2023-05-25T13:25:15.143Z,2.92
2023-05-25T13:27:44.944Z,2.75
2023-05-25T13:30:12.542Z,2.60
2023-05-25T13:32:39.758Z,2.55
2023-05-25T13:35:08.039Z,2.78
2023-05-25T13:37:34.720Z,2.65
2023-05-25T13:40:01.560Z,3.13
2023-05-25T13:42:30.175Z,3.05
2023-05-25T13:45:00.166Z,2.80
2023-05-25T13:47:28.658Z,3.30
2023-05-25T13:49:55.880Z,3.00
2023-05-25T13:52:23.656Z,3.00
2023-05-25T13:54:52.456Z,2.63
2023-05-25T13:57:20.747Z,2.85
2023-05-25T13:59:48.630Z,3.00
2023-05-25T14:02:19.838Z,3.50
2023-05-25T14:04:52.772Z,3.20
2023-05-25T14:07:19.635Z,2.83
2023-05-25T14:09:46.958Z,2.70
2023-05-25T14:12:14.501Z,2.92
2023-05-25T14:14:41.166Z,2.70
2023-05-25T14:17:08.099Z,2.50
2023-05-25T14:19:35.318Z,2.80
2023-05-25T14:22:12.660Z,2.90
2023-05-25T14:24:40.596Z,3.08
2023-05-25T14:27:07.565Z,2.80
2023-05-25T14:29:34.895Z,3.50
2023-05-25T14:32:01.710Z,3.33
2023-05-25T14:34:28.944Z,3.38
2023-05-25T14:36:56.775Z,3.83
2023-05-25T14:39:23.539Z,5.47
2023-05-25T14:41:52.226Z,5.63
2023-05-25T14:44:20.892Z,5.43
2023-05-25T14:46:49.634Z,5.93
2023-05-25T14:49:17.326Z,5.47
2023-05-25T14:51:48.290Z,6.55
2023-05-25T14:54:22.754Z,6.72
2023-05-25T14:56:49.771Z,6.53
2023-05-25T14:59:16.552Z,6.65
2023-05-25T15:01:43.196Z,4.80
2023-05-25T15:04:11.174Z,5.05
2023-05-25T15:06:40.025Z,6.88
2023-05-25T15:09:07.309Z,6.82
2023-05-25T15:11:33.886Z,6.28
2023-05-25T15:14:00.685Z,6.82
2023-05-25T15:16:27.384Z,7.43
2023-05-25T15:18:55.135Z,7.55
2023-05-25T15:21:21.668Z,6.85
2023-05-25T15:23:48.263Z,6.03
2023-05-25T15:26:14.890Z,5.20
2023-05-25T15:28:42.483Z,5.93
2023-05-25T15:31:12.248Z,5.15
2023-05-25T15:33:52.115Z,6.15
2023-05-25T15:36:24.596Z,6.65
2023-05-25T15:38:51.094Z,6.32
2023-05-25T15:41:17.892Z,6.65
2023-05-25T15:43:58.406Z,6.50
2023-05-25T15:46:26.055Z,5.85
2023-05-25T15:48:53.167Z,6.70
2023-05-25T15:51:19.844Z,8.00
2023-05-25T15:53:46.949Z,6.60
2023-05-25T15:56:13.804Z,6.88
2023-05-25T15:58:40.912Z,6.50
2023-05-25T16:01:07.462Z,6.22
2023-05-25T16:03:34.236Z,6.43
2023-05-25T16:06:02.191Z,5.97
2023-05-25T16:08:28.797Z,6.90
2023-05-25T16:11:00.639Z,7.47
2023-05-25T16:13:28.242Z,7.18
2023-05-25T16:15:54.811Z,7.00
2023-05-25T16:18:21.353Z,7.03
2023-05-25T16:20:49.231Z,7.30
2023-05-25T16:23:16.356Z,6.20
2023-05-25T16:25:44.117Z,5.43
2023-05-25T16:28:12.136Z,5.55
2023-05-25T16:30:38.788Z,6.03
2023-05-25T16:33:06.970Z,6.72
2023-05-25T16:35:33.803Z,5.82
2023-05-25T16:38:01.610Z,6.57
2023-05-25T16:40:28.276Z,5.78
2023-05-25T16:42:57.327Z,5.43
2023-05-25T16:45:24.012Z,7.13
2023-05-25T16:47:51.318Z,6.07
2023-05-25T16:50:19.054Z,5.90
2023-05-25T16:52:45.670Z,6.47
2023-05-25T16:55:13.125Z,5.85
2023-05-25T16:57:39.849Z,6.15
2023-05-25T17:00:07.477Z,4.95
2023-05-25T17:02:34.156Z,5.22
2023-05-25T17:05:06.494Z,5.85
2023-05-25T17:07:33.731Z,5.55
2023-05-25T17:10:08.142Z,6.13
2023-05-25T17:12:37.036Z,5.38
2023-05-25T17:15:04.078Z,5.72
2023-05-25T17:17:37.653Z,5.68
2023-05-25T17:20:05.216Z,5.75
2023-05-25T17:22:31.974Z,5.47
2023-05-25T17:24:58.714Z,6.63
2023-05-25T17:27:25.607Z,6.40
2023-05-25T17:29:52.391Z,6.45
2023-05-25T17:32:20.184Z,5.90
2023-05-25T17:34:46.755Z,6.53
2023-05-25T17:37:13.300Z,5.65
2023-05-25T17:39:40.378Z,6.10
2023-05-25T17:42:07.536Z,6.53
2023-05-25T17:44:34.114Z,7.07
2023-05-25T17:47:00.829Z,6.28
2023-05-25T17:49:28.205Z,7.57
2023-05-25T17:51:54.768Z,6.22
2023-05-25T17:54:25.719Z,6.78
2023-05-25T17:56:52.505Z,6.32
2023-05-25T17:59:19.492Z,7.22
2023-05-25T18:01:46.160Z,7.20
2023-05-25T18:04:12.996Z,6.65
2023-05-25T18:06:39.748Z,6.68
2023-05-25T18:09:06.499Z,5.93
2023-05-25T18:11:33.699Z,5.43
2023-05-25T18:14:05.504Z,5.50
2023-05-25T18:16:32.574Z,5.15
2023-05-25T18:18:59.176Z,5.22
2023-05-25T18:21:25.759Z,5.20
2023-05-25T18:23:52.322Z,4.95
2023-05-25T18:26:19.026Z,5.20
2023-05-25T18:28:45.610Z,4.68
2023-05-25T18:31:12.368Z,4.72
2023-05-25T18:33:41.219Z,5.07
2023-05-25T18:36:09.003Z,5.35
2023-05-25T18:38:36.032Z,5.15
2023-05-25T18:41:03.652Z,4.80
2023-05-25T18:43:30.350Z,4.70
2023-05-25T18:45:57.045Z,4.65
2023-05-25T18:48:24.121Z,4.90
2023-05-25T18:50:51.505Z,4.88
2023-05-25T18:53:22.105Z,4.78
2023-05-25T18:55:48.843Z,4.55
2023-05-25T18:58:15.685Z,4.70
2023-05-25T19:00:42.412Z,4.28
2023-05-25T19:03:09.104Z,4.38
2023-05-25T19:05:35.836Z,5.20
2023-05-25T19:08:02.565Z,5.22
2023-05-25T19:10:30.743Z,5.00
2023-05-25T19:12:57.318Z,5.03
2023-05-25T19:15:24.081Z,4.95
2023-05-25T19:17:50.752Z,4.63
2023-05-25T19:20:18.649Z,5.40
2023-05-25T19:22:46.470Z,5.13
2023-05-25T19:25:15.352Z,5.38
2023-05-25T19:27:42.084Z,4.93
2023-05-25T19:30:09.233Z,5.50
2023-05-25T19:32:36.839Z,5.53
2023-05-25T19:35:03.652Z,5.45
2023-05-25T19:37:35.178Z,5.70
2023-05-25T19:40:01.739Z,5.32
2023-05-25T19:42:28.285Z,6.00
2023-05-25T19:44:54.997Z,5.32
2023-05-25T19:47:22.674Z,5.50
2023-05-25T19:49:49.362Z,5.70
2023-05-25T19:52:17.736Z,5.13
2023-05-25T19:54:44.634Z,5.35
2023-05-25T19:57:11.470Z,6.20
2023-05-25T19:59:38.380Z,5.70
2023-05-25T20:02:05.116Z,6.13
2023-05-25T20:04:34.157Z,5.45
2023-05-25T20:07:00.766Z,5.80
2023-05-25T20:09:30.821Z,6.03
2023-05-25T20:11:58.561Z,5.72
2023-05-25T20:14:33.727Z,5.30
2023-05-25T20:17:00.393Z,5.68
2023-05-25T20:19:26.986Z,6.10
2023-05-25T20:21:53.805Z,6.38
2023-05-25T20:24:21.916Z,6.15
2023-05-25T20:26:48.449Z,6.07
2023-05-25T20:29:15.068Z,5.80
2023-05-25T20:31:41.753Z,6.43
2023-05-25T20:34:08.488Z,5.95
2023-05-25T20:36:35.080Z,6.47
2023-05-25T20:39:03.174Z,6.65
2023-05-25T20:41:29.964Z,6.85
2023-05-25T20:43:57.925Z,6.90
2023-05-25T20:46:26.184Z,6.88
2023-05-25T20:48:53.588Z,7.50
2023-05-25T20:51:21.700Z,7.03
2023-05-25T20:53:48.319Z,7.25
2023-05-25T20:56:16.220Z,6.97
2023-05-25T20:58:42.796Z,7.47
2023-05-25T21:01:09.699Z,6.78
2023-05-25T21:03:36.714Z,7.40
2023-05-25T21:06:03.472Z,7.43
2023-05-25T21:08:30.040Z,7.57
2023-05-25T21:11:04.610Z,7.93
2023-05-25T21:13:31.202Z,7.85
2023-05-25T21:15:57.739Z,7.45
2023-05-25T21:18:24.300Z,8.00
2023-05-25T21:20:50.998Z,7.55
2023-05-25T21:23:17.625Z,7.70
2023-05-25T21:25:44.713Z,8.40
2023-05-25T21:28:11.480Z,8.00
2023-05-25T21:30:37.982Z,7.65
2023-05-25T21:33:05.826Z,7.88
2023-05-25T21:35:32.485Z,7.95
2023-05-25T21:37:59.030Z,8.35
2023-05-25T21:40:25.786Z,8.10
2023-05-25T21:42:53.402Z,8.52
2023-05-25T21:45:20.370Z,8.75
2023-05-25T21:47:46.890Z,8.70
2023-05-25T21:50:15.772Z,8.48
2023-05-25T21:52:42.506Z,9.32
2023-05-25T21:55:09.281Z,9.05
2023-05-25T21:57:36.385Z,8.90
2023-05-25T22:00:03.815Z,8.15
2023-05-25T22:02:30.487Z,9.05
2023-05-25T22:04:57.307Z,8.25
2023-05-25T22:08:02.113Z,8.52
2023-05-25T22:10:28.938Z,9.20
2023-05-25T22:12:56.440Z,9.15
2023-05-25T22:15:23.864Z,9.32
2023-05-25T22:17:51.229Z,9.18
2023-05-25T22:20:18.180Z,8.80
2023-05-25T22:22:45.946Z,9.73
2023-05-25T22:25:13.092Z,9.10
2023-05-25T22:27:39.718Z,9.20
2023-05-25T22:30:07.015Z,9.07
2023-05-25T22:32:33.732Z,9.38
2023-05-25T22:35:01.044Z,9.57
2023-05-25T22:37:27.839Z,9.90
2023-05-25T22:39:54.450Z,9.43
2023-05-25T22:42:21.770Z,9.00
2023-05-25T22:44:51.119Z,9.15
2023-05-25T22:47:17.959Z,9.63
2023-05-25T22:49:50.542Z,8.75
2023-05-25T22:52:17.133Z,9.70
2023-05-25T22:54:43.721Z,9.57
2023-05-25T22:57:10.463Z,9.70
2023-05-25T22:59:37.083Z,9.02
2023-05-25T23:02:04.075Z,9.02
2023-05-25T23:04:30.990Z,8.77
2023-05-25T23:06:57.521Z,9.48
2023-05-25T23:09:24.088Z,9.07
2023-05-25T23:11:53.843Z,9.32
2023-05-25T23:14:20.937Z,9.43
2023-05-25T23:16:48.837Z,9.80
2023-05-25T23:19:16.726Z,8.77
2023-05-25T23:21:43.849Z,8.90
2023-05-25T23:24:10.463Z,9.40
2023-05-25T23:26:39.172Z,8.63
2023-05-25T23:29:06.028Z,9.32
2023-05-25T23:31:32.866Z,9.75
2023-05-25T23:33:59.436Z,9.27
2023-05-25T23:36:26.215Z,9.18
2023-05-25T23:38:53.171Z,9.55
2023-05-25T23:41:22.065Z,9.23
2023-05-25T23:43:48.578Z,9.48
2023-05-25T23:46:17.533Z,8.95
2023-05-25T23:48:45.586Z,9.38
2023-05-25T23:51:12.324Z,9.00
2023-05-25T23:53:39.393Z,8.98
2023-05-25T23:56:06.214Z,8.98
2023-05-25T23:58:32.996Z,8.88
